地図

経路データ

SID SEASON NUMBER BASIN SUBBASIN NAME ISO_TIME NATURE LAT LON WMO_WIND WMO_PRES WMO_AGENCY TRACK_TYPE DIST2LAND LANDFALL IFLAG USA_AGENCY USA_ATCF_ID USA_LAT USA_LON USA_RECORD USA_STATUS USA_WIND USA_PRES USA_SSHS USA_R34_NE USA_R34_SE USA_R34_SW USA_R34_NW USA_R50_NE USA_R50_SE USA_R50_SW USA_R50_NW USA_R64_NE USA_R64_SE USA_R64_SW USA_R64_NW USA_POCI USA_ROCI USA_RMW USA_EYE TOKYO_LAT TOKYO_LON TOKYO_GRADE TOKYO_WIND TOKYO_PRES TOKYO_R50_DIR TOKYO_R50_LONG TOKYO_R50_SHORT TOKYO_R30_DIR TOKYO_R30_LONG TOKYO_R30_SHORT TOKYO_LAND CMA_LAT CMA_LON CMA_CAT CMA_WIND CMA_PRES HKO_LAT HKO_LON HKO_CAT HKO_WIND HKO_PRES NEWDELHI_LAT NEWDELHI_LON NEWDELHI_GRADE NEWDELHI_WIND NEWDELHI_PRES NEWDELHI_CI NEWDELHI_DP NEWDELHI_POCI REUNION_LAT REUNION_LON REUNION_TYPE REUNION_WIND REUNION_PRES REUNION_TNUM REUNION_CI REUNION_RMW REUNION_R34_NE REUNION_R34_SE REUNION_R34_SW REUNION_R34_NW REUNION_R50_NE REUNION_R50_SE REUNION_R50_SW REUNION_R50_NW REUNION_R64_NE REUNION_R64_SE REUNION_R64_SW REUNION_R64_NW BOM_LAT BOM_LON BOM_TYPE BOM_WIND BOM_PRES BOM_TNUM BOM_CI BOM_RMW BOM_R34_NE BOM_R34_SE BOM_R34_SW BOM_R34_NW BOM_R50_NE BOM_R50_SE BOM_R50_SW BOM_R50_NW BOM_R64_NE BOM_R64_SE BOM_R64_SW BOM_R64_NW BOM_ROCI BOM_POCI BOM_EYE BOM_POS_METHOD BOM_PRES_METHOD NADI_LAT NADI_LON NADI_CAT NADI_WIND NADI_PRES WELLINGTON_LAT WELLINGTON_LON WELLINGTON_WIND WELLINGTON_PRES DS824_LAT DS824_LON DS824_STAGE DS824_WIND DS824_PRES TD9636_LAT TD9636_LON TD9636_STAGE TD9636_WIND TD9636_PRES TD9635_LAT TD9635_LON TD9635_WIND TD9635_PRES TD9635_ROCI NEUMANN_LAT NEUMANN_LON NEUMANN_CLASS NEUMANN_WIND NEUMANN_PRES MLC_LAT MLC_LON MLC_CLASS MLC_WIND MLC_PRES USA_GUST BOM_GUST BOM_GUST_PER REUNION_GUST REUNION_GUST_PER USA_SEAHGT USA_SEARAD_NE USA_SEARAD_SE USA_SEARAD_SW USA_SEARAD_NW STORM_SPEED STORM_DIR
1987226N13241 1987 58 EP MM JOVA 1987-08-13 18:00:00 TS 13.4000 -119.500 30 hurdat_epa main 1460 1460 O_________O___ hurdat_epa EP101987 13.4000 -119.500 TD 30 -1 13.4000 -119.500 1 30 11 260
1987226N13241 1987 58 EP MM JOVA 1987-08-13 21:00:00 TS 13.3001 -120.077 main 1513 1513 P_________P___ EP101987 13.3003 -120.078 TD 30 -1 13.2996 -120.074 1 30 11 259
1987226N13241 1987 58 EP MM JOVA 1987-08-14 00:00:00 TS 13.2000 -120.600 30 hurdat_epa main 1558 1558 O_________O___ hurdat_epa EP101987 13.2000 -120.600 TD 30 -1 13.2000 -120.600 1 30 10 258
1987226N13241 1987 58 EP MM JOVA 1987-08-14 03:00:00 TS 13.1006 -121.033 main 1597 1597 P_________P___ EP101987 13.0999 -121.030 TD 30 -1 13.1029 -121.043 1 31 8 256
1987226N13241 1987 58 EP MM JOVA 1987-08-14 06:00:00 TS 13.0015 -121.405 30 hurdat_epa main 1632 1632 O_________P___ hurdat_epa EP101987 13.0000 -121.400 TD 30 -1 13.0062 -121.421 1 32 7 254
1987226N13241 1987 58 EP MM JOVA 1987-08-14 09:00:00 TS 12.9015 -121.759 main 1667 1667 P_________P___ EP101987 12.8999 -121.757 TD 32 -1 12.9064 -121.764 1 33 7 253
1987226N13241 1987 58 EP MM JOVA 1987-08-14 12:00:00 TS 12.8000 -122.100 35 hurdat_epa main 1695 1695 O_________O___ hurdat_epa EP101987 12.8000 -122.100 TS 35 0 12.8000 -122.100 2 35 7 253
1987226N13241 1987 58 EP MM JOVA 1987-08-14 15:00:00 TS 12.7010 -122.444 main 1724 1724 P_________P___ EP101987 12.7074 -122.442 TS 35 0 12.6818 -122.451 2 35 7 253
1987226N13241 1987 58 EP MM JOVA 1987-08-14 18:00:00 TS 12.5892 -122.801 35 hurdat_epa main 1759 1759 O_________P___ hurdat_epa EP101987 12.6000 -122.800 TS 35 0 12.5569 -122.805 2 35 8 250
1987226N13241 1987 58 EP MM JOVA 1987-08-14 21:00:00 TS 12.4446 -123.179 main 1804 1804 P_________P___ EP101987 12.4499 -123.178 TS 35 0 12.4286 -123.182 2 35 8 250
1987226N13241 1987 58 EP MM JOVA 1987-08-15 00:00:00 TS 12.3000 -123.600 35 hurdat_epa main 1840 1840 O_________O___ hurdat_epa EP101987 12.3000 -123.600 TS 35 0 12.3000 -123.600 2 35 9 254
1987226N13241 1987 58 EP MM JOVA 1987-08-15 03:00:00 TS 12.1876 -124.079 main 1883 1883 P_________P___ EP101987 12.1999 -124.077 TS 35 0 12.1507 -124.082 2 35 10 257
1987226N13241 1987 58 EP MM JOVA 1987-08-15 06:00:00 TS 12.0763 -124.601 35 hurdat_epa main 1927 1927 O_________P___ hurdat_epa EP101987 12.1000 -124.600 TS 35 0 12.0051 -124.606 2 35 11 256
1987226N13241 1987 58 EP MM JOVA 1987-08-15 09:00:00 TS 11.9217 -125.145 main 1980 1980 P_________P___ EP101987 11.9349 -125.143 TS 35 0 11.8819 -125.151 2 35 11 256
1987226N13241 1987 58 EP MM JOVA 1987-08-15 12:00:00 TS 11.8000 -125.700 35 hurdat_epa main 2033 2033 O_________O___ hurdat_epa EP101987 11.8000 -125.700 TS 35 0 11.8000 -125.700 2 35 11 262
1987226N13241 1987 58 EP MM JOVA 1987-08-15 15:00:00 TS 11.7719 -126.255 main 2077 2077 P_________P___ EP101987 11.7699 -126.257 TS 37 0 11.7778 -126.249 2 36 11 270
1987226N13241 1987 58 EP MM JOVA 1987-08-15 18:00:00 TS 11.7994 -126.799 40 hurdat_epa main 2115 2115 O_________P___ hurdat_epa EP101987 11.8000 -126.800 TS 40 0 11.7976 -126.795 2 37 10 274
1987226N13241 1987 58 EP MM JOVA 1987-08-15 21:00:00 TS 11.8483 -127.321 main 2154 2146 P_________P___ EP101987 11.8499 -127.322 TS 40 0 11.8435 -127.318 2 38 10 276
1987226N13241 1987 58 EP MM JOVA 1987-08-16 00:00:00 TS 11.9000 -127.800 40 hurdat_epa main 2185 2185 O_________O___ hurdat_epa EP101987 11.9000 -127.800 TS 40 0 11.9000 -127.800 2 40 9 273
1987226N13241 1987 58 EP MM JOVA 1987-08-16 03:00:00 TS 11.8995 -128.225 main 2217 2217 P_________P___ EP101987 11.8924 -128.223 TS 45 0 11.9207 -128.233 2 43 8 271
1987226N13241 1987 58 EP MM JOVA 1987-08-16 06:00:00 TS 11.9130 -128.605 50 hurdat_epa main 2249 2249 O_________P___ hurdat_epa EP101987 11.9000 -128.600 TS 50 0 11.9519 -128.622 2 47 7 277
1987226N13241 1987 58 EP MM JOVA 1987-08-16 09:00:00 TS 11.9849 -128.967 main 2274 2274 P_________P___ EP101987 11.9775 -128.965 TS 52 0 12.0072 -128.975 2 51 7 285
1987226N13241 1987 58 EP MM JOVA 1987-08-16 12:00:00 TS 12.1000 -129.300 55 hurdat_epa main 2291 2291 O_________O___ hurdat_epa EP101987 12.1000 -129.300 TS 55 0 12.1000 -129.300 2 55 7 291
1987226N13241 1987 58 EP MM JOVA 1987-08-16 15:00:00 TS 12.2342 -129.615 main 2304 2296 P_________P___ EP101987 12.2350 -129.615 TS 60 0 12.2320 -129.615 2 60 7 297
1987226N13241 1987 58 EP MM JOVA 1987-08-16 18:00:00 TS 12.4000 -129.900 65 hurdat_epa main 2308 2305 O_________O___ hurdat_epa EP101987 12.4000 -129.900 HU 65 1 12.4000 -129.900 3 65 6 305
1987226N13241 1987 58 EP MM JOVA 1987-08-16 21:00:00 TS 12.5916 -130.145 main 2305 2302 P_________P___ EP101987 12.5924 -130.143 HU 67 1 12.5893 -130.153 3 67 6 309
1987226N13241 1987 58 EP MM JOVA 1987-08-17 00:00:00 TS 12.8000 -130.400 70 hurdat_epa main 2309 2308 O_________O___ hurdat_epa EP101987 12.8000 -130.400 HU 70 1 12.8000 -130.400 4 70 7 305
1987226N13241 1987 58 EP MM JOVA 1987-08-17 03:00:00 TS 12.9999 -130.733 main 2314 2313 P_________P___ EP101987 12.9926 -130.750 HU 70 1 13.0220 -130.680 4 72 8 302
1987226N13241 1987 58 EP MM JOVA 1987-08-17 06:00:00 TS 13.2133 -131.070 70 hurdat_epa main 2327 2318 O_________P___ hurdat_epa EP101987 13.2000 -131.100 HU 70 1 13.2534 -130.980 4 75 8 308
1987226N13241 1987 58 EP MM JOVA 1987-08-17 09:00:00 TS 13.4582 -131.340 main 2318 2318 P_________P___ EP101987 13.4499 -131.358 HU 75 1 13.4831 -131.289 4 77 7 313
1987226N13241 1987 58 EP MM JOVA 1987-08-17 12:00:00 TS 13.7000 -131.600 80 hurdat_epa main 2325 2324 O_________O___ hurdat_epa EP101987 13.7000 -131.600 HU 80 1 13.7000 -131.600 4 80 7 310
1987226N13241 1987 58 EP MM JOVA 1987-08-17 15:00:00 TS 13.9116 -131.894 main 2332 2332 P_________P___ EP101987 13.9150 -131.893 HU 85 2 13.9014 -131.900 4 82 7 304
1987226N13241 1987 58 EP MM JOVA 1987-08-17 18:00:00 TS 14.0968 -132.200 90 hurdat_epa main 2340 2340 O_________P___ hurdat_epa EP101987 14.1000 -132.200 HU 90 2 14.0873 -132.200 4 85 7 301
1987226N13241 1987 58 EP MM JOVA 1987-08-17 21:00:00 TS 14.2623 -132.494 main 2349 2349 P_________P___ EP101987 14.2649 -132.493 HU 90 2 14.2546 -132.500 4 87 7 298
1987226N13241 1987 58 EP MM JOVA 1987-08-18 00:00:00 TS 14.4000 -132.800 90 hurdat_epa main 2365 2365 O_________O___ hurdat_epa EP101987 14.4000 -132.800 HU 90 2 14.4000 -132.800 4 90 7 292
1987226N13241 1987 58 EP MM JOVA 1987-08-18 03:00:00 TS 14.5120 -133.141 main 2372 2328 P_________P___ EP101987 14.5075 -133.158 HU 82 1 14.5254 -133.092 4 86 7 288
1987226N13241 1987 58 EP MM JOVA 1987-08-18 06:00:00 TS 14.6074 -133.471 75 hurdat_epa main 2328 2304 O_________P___ hurdat_epa EP101987 14.6000 -133.500 HU 75 1 14.6297 -133.385 4 82 6 289
1987226N13241 1987 58 EP MM JOVA 1987-08-18 09:00:00 TS 14.7103 -133.740 main 2304 2270 P_________P___ EP101987 14.7074 -133.758 HU 75 1 14.7192 -133.686 4 78 5 291
1987226N13241 1987 58 EP MM JOVA 1987-08-18 12:00:00 TS 14.8000 -134.000 75 hurdat_epa main 2270 2236 O_________O___ hurdat_epa EP101987 14.8000 -134.000 HU 75 1 14.8000 -134.000 4 75 5 286
1987226N13241 1987 58 EP MM JOVA 1987-08-18 15:00:00 TS 14.8609 -134.285 main 2236 2205 P_________P___ EP101987 14.8499 -134.278 HU 75 1 14.8940 -134.307 4 75 6 282
1987226N13241 1987 58 EP MM JOVA 1987-08-18 18:00:00 TS 14.9198 -134.608 75 hurdat_epa main 2205 2160 O_________P___ hurdat_epa EP101987 14.9000 -134.600 HU 75 1 14.9793 -134.632 4 75 7 283
1987226N13241 1987 58 EP MM JOVA 1987-08-18 21:00:00 TS 15.0181 -134.981 main 2160 2116 P_________P___ EP101987 15.0075 -134.977 HU 75 1 15.0501 -134.992 4 75 8 283
1987226N13241 1987 58 EP MM JOVA 1987-08-19 00:00:00 TS 15.1000 -135.400 75 hurdat_epa main 2116 2075 O_________O___ hurdat_epa EP101987 15.1000 -135.400 HU 75 1 15.1000 -135.400 4 75 8 277
1987226N13241 1987 58 EP MM JOVA 1987-08-19 03:00:00 TS 15.1174 -135.825 main 2075 2023 P_________P___ EP101987 15.1148 -135.820 HU 75 1 15.1251 -135.838 4 75 9 270
1987226N13241 1987 58 EP MM JOVA 1987-08-19 06:00:00 TS 15.1073 -136.308 75 hurdat_epa main 2023 1972 O_________P___ hurdat_epa EP101987 15.1000 -136.300 HU 75 1 15.1291 -136.330 4 75 10 269
1987226N13241 1987 58 EP MM JOVA 1987-08-19 09:00:00 TS 15.1045 -136.867 main 1962 1900 P_________P___ EP101987 15.0999 -136.863 HU 75 1 15.1185 -136.882 4 75 12 270
1987226N13241 1987 58 EP MM JOVA 1987-08-19 12:00:00 TS 15.1000 -137.500 75 hurdat_epa main 1900 1839 O_________O___ hurdat_epa EP101987 15.1000 -137.500 HU 75 1 15.1000 -137.500 4 75 13 270
1987226N13241 1987 58 EP MM JOVA 1987-08-19 15:00:00 TS 15.1000 -138.171 main 1829 1757 P_________P___ EP101987 15.1073 -138.170 HU 70 1 15.0780 -138.173 4 67 14 269
1987226N13241 1987 58 EP MM JOVA 1987-08-19 18:00:00 TS 15.0874 -138.903 65 hurdat_epa main 1757 1686 O_________P___ hurdat_epa EP101987 15.1000 -138.900 HU 65 1 15.0497 -138.911 4 60 15 268
1987226N13241 1987 58 EP MM JOVA 1987-08-19 21:00:00 TS 15.0428 -139.693 main 1680 1599 P_________P___ EP101987 15.0499 -139.693 HU 55 0 15.0215 -139.692 4 52 15 267
1987226N13241 1987 58 EP CP JOVA 1987-08-20 00:00:00 TS 15.0000 -140.500 45 hurdat_epa main 1599 1529 O_________O___ hurdat_epa EP101987 15.0000 -140.500 TS 45 0 15.0000 -140.500 2 45 15 268
1987226N13241 1987 58 EP CP JOVA 1987-08-20 03:00:00 TS 14.9882 -141.263 main 1519 1449 P_________P___ EP101987 14.9919 -141.235 TS 42 0 15.0206 -141.299 2 43 15 269
1987226N13241 1987 58 EP CP JOVA 1987-08-20 06:00:00 TS 14.9777 -142.057 40 hurdat_epa main 1439 1360 O_________P___ hurdat_epa EP101987 15.0000 -142.000 TS 40 0 15.0441 -142.119 2 42 16 269
1987226N13241 1987 58 EP CP JOVA 1987-08-20 09:00:00 TS 14.9625 -142.917 main 1360 1276 P_________P___ EP101987 15.0224 -142.877 TS 40 0 15.0455 -142.955 2 41 17 268
1987226N13241 1987 58 EP CP JOVA 1987-08-20 12:00:00 TS 14.9200 -143.800 40 hurdat_epa main 1276 1204 O_________O___ hurdat_epa EP101987 15.0000 -143.800 TS 40 0 15.0000 -143.800 2 40 17 265
1987226N13241 1987 58 EP CP JOVA 1987-08-20 15:00:00 TS 14.8002 -144.684 main 1194 1124 P_________P___ EP101987 14.8798 -144.715 TS 35 0 14.8620 -144.632 2 37 17 260
1987226N13241 1987 58 EP CP JOVA 1987-08-20 18:00:00 TS 14.6357 -145.554 30 hurdat_epa main 1121 1062 O_________P___ hurdat_epa EP101987 14.7000 -145.600 TD 30 -1 14.6784 -145.471 2 35 17 258
1987226N13241 1987 58 EP CP JOVA 1987-08-20 21:00:00 TS 14.4498 -146.380 main 1060 996 P_________P___ EP101987 14.4920 -146.408 TD 30 -1 14.4807 -146.325 2 32 16 257
1987226N13241 1987 58 EP CP JOVA 1987-08-21 00:00:00 TS 14.2800 -147.200 30 hurdat_epa main 996 935 O_________O___ hurdat_epa EP101987 14.3000 -147.200 TD 30 -1 14.3000 -147.200 1 30 16 260
1987226N13241 1987 58 EP CP JOVA 1987-08-21 03:00:00 TS 14.1736 -148.033 main 935 871 P_________P___ EP101987 14.1845 -148.020 TD 30 -1 14.1651 -148.087 1 30 17 264
1987226N13241 1987 58 EP CP JOVA 1987-08-21 06:00:00 TS 14.0907 -148.919 30 hurdat_epa main 871 811 O_________P___ hurdat_epa EP101987 14.1000 -148.900 TD 30 -1 14.0534 -148.997 1 30 18 264
1987226N13241 1987 58 EP CP JOVA 1987-08-21 09:00:00 TS 13.9883 -149.894 main 804 745 P_________P___ EP101987 13.9923 -149.870 TD 30 -1 13.9650 -149.934 1 30 20 264
1987226N13241 1987 58 EP CP JOVA 1987-08-21 12:00:00 TS 13.9000 -150.920 30 hurdat_epa main 745 698 O_________O___ hurdat_epa EP101987 13.9000 -150.900 TD 30 -1 13.9000 -150.900 1 30 20 266
1987226N13241 1987 58 EP CP JOVA 1987-08-21 15:00:00 TS 13.8392 -151.951 main 693 644 P_________P___ EP101987 13.8347 -151.950 TD 30 -1 13.8574 -151.896 1 28 20 267
1987226N13241 1987 58 EP CP JOVA 1987-08-21 18:00:00 TS 13.8063 -152.983 30 hurdat_epa main 639 602 O_________P___ hurdat_epa EP101987 13.8000 -153.000 TD 30 -1 13.8313 -152.917 1 27 20 269
1987226N13241 1987 58 EP CP JOVA 1987-08-21 21:00:00 TS 13.7975 -153.998 main 598 577 P_________P___ EP101987 13.7932 -154.012 TD 27 -1 13.8144 -153.955 1 26 20 270
1987226N13241 1987 58 EP CP JOVA 1987-08-22 00:00:00 TS 13.8000 -155.000 25 hurdat_epa main 575 O_________O___ hurdat_epa EP101987 13.8000 -155.000 TD 25 -1 13.8000 -155.000 1 25 19 270

IBTrACS Databaseについて

本データベースは、米国NOAAが公開する1842年以降の世界の熱帯低気圧のベストトラックデータアーカイブInternational Best Track Archive for Climate Stewardship (IBTrACS)を、ウェブで閲覧しやすい形式に変換したものです。

最終更新日:2021-10-08